Kamiah, Idaho
Current Conditions -  °F | °C
As of 6:15 PM on Monday 22 Dec 2014 (Local Time) from KGIC Reporting Station
Clear Clear  
Wind Chill: 28°   Ceiling: Unl
Heat Index: 33°   Visibility: 10mi
Dew Point: 25°   Wind: 6mph
Humidity: 72%   Direction: 110°ESE
Pressure: 30.33"   Gusts: NA
Location:  46.23°N, 116.03°W
Report Text: KGIC 230215Z AUTO 11005KT 10SM CLR 01/M04 A3033 RMK AO1 T00071039
Loading
Personal Weather Stations






























Interactive Weather Map New forecast layout! Learn more

10-Day Weather Forecast

Advertisements
Track Severe Weather on mobile